sensor_id;sensor_type;location;lat;lon;timestamp;P1;durP1;ratioP1;P2;durP2;ratioP2
47367;SDS011;34646;47.964;7.982;2024-01-11T00:00:39;9.13;;;5.68;;
47367;SDS011;34646;47.964;7.982;2024-01-11T00:06:41;9.30;;;5.83;;
47367;SDS011;34646;47.964;7.982;2024-01-11T00:12:43;10.13;;;6.15;;
47367;SDS011;34646;47.964;7.982;2024-01-11T00:18:44;10.87;;;5.90;;
47367;SDS011;34646;47.964;7.982;2024-01-11T00:24:45;8.77;;;5.83;;
47367;SDS011;34646;47.964;7.982;2024-01-11T00:30:46;9.80;;;6.03;;
47367;SDS011;34646;47.964;7.982;2024-01-11T00:36:46;9.67;;;5.93;;
47367;SDS011;34646;47.964;7.982;2024-01-11T00:42:47;9.67;;;6.10;;
47367;SDS011;34646;47.964;7.982;2024-01-11T00:48:48;8.90;;;6.23;;
47367;SDS011;34646;47.964;7.982;2024-01-11T00:54:49;10.90;;;6.20;;
47367;SDS011;34646;47.964;7.982;2024-01-11T01:00:51;9.77;;;6.20;;
47367;SDS011;34646;47.964;7.982;2024-01-11T01:06:54;9.13;;;5.97;;
47367;SDS011;34646;47.964;7.982;2024-01-11T01:12:55;8.87;;;5.87;;
47367;SDS011;34646;47.964;7.982;2024-01-11T01:18:56;9.90;;;5.67;;
47367;SDS011;34646;47.964;7.982;2024-01-11T01:24:57;10.27;;;6.20;;
47367;SDS011;34646;47.964;7.982;2024-01-11T01:30:58;8.57;;;5.77;;
47367;SDS011;34646;47.964;7.982;2024-01-11T01:36:59;11.23;;;5.90;;
47367;SDS011;34646;47.964;7.982;2024-01-11T01:43:00;9.17;;;5.80;;
47367;SDS011;34646;47.964;7.982;2024-01-11T01:49:01;8.50;;;5.57;;
47367;SDS011;34646;47.964;7.982;2024-01-11T01:55:02;9.65;;;5.95;;
47367;SDS011;34646;47.964;7.982;2024-01-11T02:01:04;9.18;;;5.93;;
47367;SDS011;34646;47.964;7.982;2024-01-11T02:07:05;9.80;;;5.43;;
47367;SDS011;34646;47.964;7.982;2024-01-11T02:13:06;7.97;;;5.43;;
47367;SDS011;34646;47.964;7.982;2024-01-11T02:19:07;9.07;;;5.60;;
47367;SDS011;34646;47.964;7.982;2024-01-11T02:25:12;9.65;;;5.97;;
47367;SDS011;34646;47.964;7.982;2024-01-11T02:31:13;9.03;;;5.57;;
47367;SDS011;34646;47.964;7.982;2024-01-11T02:37:14;9.90;;;5.93;;
47367;SDS011;34646;47.964;7.982;2024-01-11T02:43:16;7.18;;;4.72;;
47367;SDS011;34646;47.964;7.982;2024-01-11T02:49:17;6.97;;;4.70;;
47367;SDS011;34646;47.964;7.982;2024-01-11T02:55:18;8.47;;;5.57;;
47367;SDS011;34646;47.964;7.982;2024-01-11T03:01:18;7.40;;;5.10;;
47367;SDS011;34646;47.964;7.982;2024-01-11T03:07:19;7.17;;;4.87;;
47367;SDS011;34646;47.964;7.982;2024-01-11T03:13:20;7.97;;;5.30;;
47367;SDS011;34646;47.964;7.982;2024-01-11T03:19:20;8.67;;;4.80;;
47367;SDS011;34646;47.964;7.982;2024-01-11T03:25:21;8.33;;;4.93;;
47367;SDS011;34646;47.964;7.982;2024-01-11T03:31:22;8.23;;;5.47;;
47367;SDS011;34646;47.964;7.982;2024-01-11T03:37:23;8.73;;;4.83;;
47367;SDS011;34646;47.964;7.982;2024-01-11T03:43:23;7.00;;;5.27;;
47367;SDS011;34646;47.964;7.982;2024-01-11T03:49:25;7.07;;;4.88;;
47367;SDS011;34646;47.964;7.982;2024-01-11T03:55:25;7.03;;;5.17;;
47367;SDS011;34646;47.964;7.982;2024-01-11T04:01:26;8.10;;;5.17;;
47367;SDS011;34646;47.964;7.982;2024-01-11T04:07:27;6.10;;;4.70;;
47367;SDS011;34646;47.964;7.982;2024-01-11T04:13:27;6.50;;;4.90;;
47367;SDS011;34646;47.964;7.982;2024-01-11T04:19:28;8.67;;;5.10;;
47367;SDS011;34646;47.964;7.982;2024-01-11T04:25:29;7.70;;;4.93;;
47367;SDS011;34646;47.964;7.982;2024-01-11T04:31:30;8.03;;;5.13;;
47367;SDS011;34646;47.964;7.982;2024-01-11T04:37:31;6.33;;;4.57;;
47367;SDS011;34646;47.964;7.982;2024-01-11T04:43:32;7.40;;;4.93;;
47367;SDS011;34646;47.964;7.982;2024-01-11T04:49:32;7.60;;;4.97;;
47367;SDS011;34646;47.964;7.982;2024-01-11T04:55:33;8.77;;;5.10;;
47367;SDS011;34646;47.964;7.982;2024-01-11T05:01:34;9.30;;;4.90;;
47367;SDS011;34646;47.964;7.982;2024-01-11T05:07:35;7.47;;;4.40;;
47367;SDS011;34646;47.964;7.982;2024-01-11T05:13:35;7.40;;;4.87;;
47367;SDS011;34646;47.964;7.982;2024-01-11T05:19:36;9.60;;;5.43;;
47367;SDS011;34646;47.964;7.982;2024-01-11T05:25:37;6.97;;;4.77;;
47367;SDS011;34646;47.964;7.982;2024-01-11T05:31:37;6.67;;;4.80;;
47367;SDS011;34646;47.964;7.982;2024-01-11T05:37:38;6.77;;;4.63;;
47367;SDS011;34646;47.964;7.982;2024-01-11T05:43:39;7.67;;;4.27;;
47367;SDS011;34646;47.964;7.982;2024-01-11T05:49:40;5.93;;;4.47;;
47367;SDS011;34646;47.964;7.982;2024-01-11T05:55:41;9.93;;;5.10;;
47367;SDS011;34646;47.964;7.982;2024-01-11T06:01:42;9.53;;;5.50;;
47367;SDS011;34646;47.964;7.982;2024-01-11T06:07:43;7.03;;;4.30;;
47367;SDS011;34646;47.964;7.982;2024-01-11T06:13:43;9.80;;;5.97;;
47367;SDS011;34646;47.964;7.982;2024-01-11T06:19:44;10.83;;;5.97;;
47367;SDS011;34646;47.964;7.982;2024-01-11T06:25:45;10.17;;;5.20;;
47367;SDS011;34646;47.964;7.982;2024-01-11T06:31:46;11.90;;;5.13;;
47367;SDS011;34646;47.964;7.982;2024-01-11T06:37:47;12.20;;;5.67;;
47367;SDS011;34646;47.964;7.982;2024-01-11T06:43:47;16.60;;;6.90;;
47367;SDS011;34646;47.964;7.982;2024-01-11T06:49:48;9.63;;;6.30;;
47367;SDS011;34646;47.964;7.982;2024-01-11T06:55:48;23.60;;;7.53;;
47367;SDS011;34646;47.964;7.982;2024-01-11T07:01:49;12.00;;;6.03;;
47367;SDS011;34646;47.964;7.982;2024-01-11T07:07:50;15.67;;;6.47;;
47367;SDS011;34646;47.964;7.982;2024-01-11T07:13:51;10.87;;;6.67;;
47367;SDS011;34646;47.964;7.982;2024-01-11T07:19:52;14.27;;;6.50;;
47367;SDS011;34646;47.964;7.982;2024-01-11T07:25:52;14.13;;;5.33;;
47367;SDS011;34646;47.964;7.982;2024-01-11T07:31:53;11.60;;;5.87;;
47367;SDS011;34646;47.964;7.982;2024-01-11T07:37:54;12.27;;;6.00;;
47367;SDS011;34646;47.964;7.982;2024-01-11T07:43:54;13.90;;;5.83;;
47367;SDS011;34646;47.964;7.982;2024-01-11T07:49:58;12.10;;;6.38;;
47367;SDS011;34646;47.964;7.982;2024-01-11T07:56:00;13.13;;;6.63;;
47367;SDS011;34646;47.964;7.982;2024-01-11T08:02:01;9.37;;;6.30;;
47367;SDS011;34646;47.964;7.982;2024-01-11T08:08:02;15.20;;;5.50;;
47367;SDS011;34646;47.964;7.982;2024-01-11T08:14:04;13.70;;;6.22;;
47367;SDS011;34646;47.964;7.982;2024-01-11T08:26:08;12.77;;;5.93;;
47367;SDS011;34646;47.964;7.982;2024-01-11T08:32:09;8.80;;;5.47;;
47367;SDS011;34646;47.964;7.982;2024-01-11T08:38:09;8.97;;;4.50;;
47367;SDS011;34646;47.964;7.982;2024-01-11T08:44:10;9.40;;;4.87;;
47367;SDS011;34646;47.964;7.982;2024-01-11T08:50:14;9.80;;;5.33;;
47367;SDS011;34646;47.964;7.982;2024-01-11T08:56:15;10.98;;;4.97;;
47367;SDS011;34646;47.964;7.982;2024-01-11T09:02:17;8.18;;;4.95;;
47367;SDS011;34646;47.964;7.982;2024-01-11T09:08:18;9.10;;;5.37;;
47367;SDS011;34646;47.964;7.982;2024-01-11T09:14:19;8.63;;;5.40;;
47367;SDS011;34646;47.964;7.982;2024-01-11T09:20:19;8.37;;;4.73;;
47367;SDS011;34646;47.964;7.982;2024-01-11T09:26:20;7.27;;;4.97;;
47367;SDS011;34646;47.964;7.982;2024-01-11T09:32:22;10.73;;;5.15;;
47367;SDS011;34646;47.964;7.982;2024-01-11T09:38:23;7.90;;;5.23;;
47367;SDS011;34646;47.964;7.982;2024-01-11T09:44:24;10.33;;;5.10;;
47367;SDS011;34646;47.964;7.982;2024-01-11T09:50:26;9.05;;;4.97;;
47367;SDS011;34646;47.964;7.982;2024-01-11T09:56:28;13.55;;;5.20;;
47367;SDS011;34646;47.964;7.982;2024-01-11T10:02:29;10.73;;;5.47;;
47367;SDS011;34646;47.964;7.982;2024-01-11T10:08:29;7.97;;;5.43;;
47367;SDS011;34646;47.964;7.982;2024-01-11T10:14:31;11.98;;;5.63;;
47367;SDS011;34646;47.964;7.982;2024-01-11T10:20:32;10.67;;;5.53;;
47367;SDS011;34646;47.964;7.982;2024-01-11T10:26:33;8.27;;;5.23;;
47367;SDS011;34646;47.964;7.982;2024-01-11T10:32:34;10.67;;;5.17;;
47367;SDS011;34646;47.964;7.982;2024-01-11T10:38:35;13.63;;;5.33;;
47367;SDS011;34646;47.964;7.982;2024-01-11T10:44:37;9.90;;;4.72;;
47367;SDS011;34646;47.964;7.982;2024-01-11T10:50:45;11.98;;;5.28;;
47367;SDS011;34646;47.964;7.982;2024-01-11T10:56:49;7.43;;;5.07;;
47367;SDS011;34646;47.964;7.982;2024-01-11T11:02:50;7.73;;;4.97;;
47367;SDS011;34646;47.964;7.982;2024-01-11T11:08:54;20.77;;;5.38;;
47367;SDS011;34646;47.964;7.982;2024-01-11T11:14:57;17.52;;;5.72;;
47367;SDS011;34646;47.964;7.982;2024-01-11T11:20:59;10.60;;;6.07;;
47367;SDS011;34646;47.964;7.982;2024-01-11T11:27:00;8.68;;;4.75;;
47367;SDS011;34646;47.964;7.982;2024-01-11T11:33:08;10.73;;;5.53;;
47367;SDS011;34646;47.964;7.982;2024-01-11T11:39:10;13.63;;;5.38;;
47367;SDS011;34646;47.964;7.982;2024-01-11T11:45:23;12.73;;;5.85;;
47367;SDS011;34646;47.964;7.982;2024-01-11T11:51:25;11.40;;;5.90;;
47367;SDS011;34646;47.964;7.982;2024-01-11T11:57:28;10.75;;;5.68;;
47367;SDS011;34646;47.964;7.982;2024-01-11T12:03:29;10.50;;;5.90;;
47367;SDS011;34646;47.964;7.982;2024-01-11T12:09:37;10.13;;;6.03;;
47367;SDS011;34646;47.964;7.982;2024-01-11T12:15:37;11.00;;;6.07;;
47367;SDS011;34646;47.964;7.982;2024-01-11T12:21:38;10.60;;;5.73;;
47367;SDS011;34646;47.964;7.982;2024-01-11T12:27:39;11.97;;;5.80;;
47367;SDS011;34646;47.964;7.982;2024-01-11T12:33:40;13.27;;;6.03;;
47367;SDS011;34646;47.964;7.982;2024-01-11T12:39:41;14.63;;;6.30;;
47367;SDS011;34646;47.964;7.982;2024-01-11T12:45:42;10.07;;;6.15;;
47367;SDS011;34646;47.964;7.982;2024-01-11T12:51:43;16.23;;;7.13;;
47367;SDS011;34646;47.964;7.982;2024-01-11T12:57:44;17.73;;;7.00;;
47367;SDS011;34646;47.964;7.982;2024-01-11T13:03:45;13.77;;;7.27;;
47367;SDS011;34646;47.964;7.982;2024-01-11T13:09:46;11.02;;;7.07;;
47367;SDS011;34646;47.964;7.982;2024-01-11T13:15:47;14.27;;;7.27;;
47367;SDS011;34646;47.964;7.982;2024-01-11T13:21:48;12.83;;;7.17;;
47367;SDS011;34646;47.964;7.982;2024-01-11T13:27:48;10.63;;;7.23;;
47367;SDS011;34646;47.964;7.982;2024-01-11T13:33:49;14.07;;;7.83;;
47367;SDS011;34646;47.964;7.982;2024-01-11T13:39:50;12.63;;;7.40;;
47367;SDS011;34646;47.964;7.982;2024-01-11T13:45:51;10.73;;;6.83;;
47367;SDS011;34646;47.964;7.982;2024-01-11T13:51:52;12.93;;;6.77;;
47367;SDS011;34646;47.964;7.982;2024-01-11T13:57:53;9.87;;;7.30;;
47367;SDS011;34646;47.964;7.982;2024-01-11T14:03:53;10.30;;;7.83;;
47367;SDS011;34646;47.964;7.982;2024-01-11T14:09:54;12.20;;;7.37;;
47367;SDS011;34646;47.964;7.982;2024-01-11T14:15:55;12.03;;;6.97;;
47367;SDS011;34646;47.964;7.982;2024-01-11T14:21:55;11.30;;;6.73;;
47367;SDS011;34646;47.964;7.982;2024-01-11T14:27:57;11.40;;;7.55;;
47367;SDS011;34646;47.964;7.982;2024-01-11T14:33:59;14.45;;;8.05;;
47367;SDS011;34646;47.964;7.982;2024-01-11T14:40:00;24.00;;;7.67;;
47367;SDS011;34646;47.964;7.982;2024-01-11T14:46:01;21.37;;;7.07;;
47367;SDS011;34646;47.964;7.982;2024-01-11T14:52:02;23.77;;;10.73;;
47367;SDS011;34646;47.964;7.982;2024-01-11T14:58:03;18.90;;;9.17;;
47367;SDS011;34646;47.964;7.982;2024-01-11T15:04:05;31.02;;;10.38;;
47367;SDS011;34646;47.964;7.982;2024-01-11T15:10:05;30.20;;;11.33;;
47367;SDS011;34646;47.964;7.982;2024-01-11T15:16:07;25.88;;;10.20;;
47367;SDS011;34646;47.964;7.982;2024-01-11T15:22:08;23.67;;;10.13;;
47367;SDS011;34646;47.964;7.982;2024-01-11T15:28:12;28.05;;;9.68;;
47367;SDS011;34646;47.964;7.982;2024-01-11T15:34:12;26.93;;;10.63;;
47367;SDS011;34646;47.964;7.982;2024-01-11T15:40:14;25.73;;;12.15;;
47367;SDS011;34646;47.964;7.982;2024-01-11T15:46:15;34.30;;;11.67;;
47367;SDS011;34646;47.964;7.982;2024-01-11T15:52:16;27.83;;;11.00;;
47367;SDS011;34646;47.964;7.982;2024-01-11T15:58:16;27.07;;;11.90;;
47367;SDS011;34646;47.964;7.982;2024-01-11T16:04:17;24.93;;;11.80;;
47367;SDS011;34646;47.964;7.982;2024-01-11T16:10:18;27.43;;;12.63;;
47367;SDS011;34646;47.964;7.982;2024-01-11T16:16:19;30.57;;;12.07;;
47367;SDS011;34646;47.964;7.982;2024-01-11T16:22:20;28.10;;;12.03;;
47367;SDS011;34646;47.964;7.982;2024-01-11T16:28:20;29.47;;;11.80;;
47367;SDS011;34646;47.964;7.982;2024-01-11T16:34:21;25.60;;;11.50;;
47367;SDS011;34646;47.964;7.982;2024-01-11T16:40:21;25.00;;;11.57;;
47367;SDS011;34646;47.964;7.982;2024-01-11T16:46:23;24.07;;;10.90;;
47367;SDS011;34646;47.964;7.982;2024-01-11T16:52:24;27.20;;;11.30;;
47367;SDS011;34646;47.964;7.982;2024-01-11T16:58:24;26.00;;;11.67;;
47367;SDS011;34646;47.964;7.982;2024-01-11T17:04:25;30.17;;;11.10;;
47367;SDS011;34646;47.964;7.982;2024-01-11T17:10:26;21.30;;;10.53;;
47367;SDS011;34646;47.964;7.982;2024-01-11T17:16:27;26.07;;;11.57;;
47367;SDS011;34646;47.964;7.982;2024-01-11T17:22:27;21.07;;;11.13;;
47367;SDS011;34646;47.964;7.982;2024-01-11T17:28:28;16.73;;;9.80;;
47367;SDS011;34646;47.964;7.982;2024-01-11T17:34:29;27.43;;;11.13;;
47367;SDS011;34646;47.964;7.982;2024-01-11T17:40:30;21.07;;;10.47;;
47367;SDS011;34646;47.964;7.982;2024-01-11T17:46:33;18.23;;;10.20;;
47367;SDS011;34646;47.964;7.982;2024-01-11T17:52:34;20.00;;;9.97;;
47367;SDS011;34646;47.964;7.982;2024-01-11T17:58:34;21.33;;;9.53;;
47367;SDS011;34646;47.964;7.982;2024-01-11T18:04:35;30.43;;;9.23;;
47367;SDS011;34646;47.964;7.982;2024-01-11T18:10:36;18.90;;;9.73;;
47367;SDS011;34646;47.964;7.982;2024-01-11T18:16:37;18.65;;;9.70;;
47367;SDS011;34646;47.964;7.982;2024-01-11T18:22:38;20.90;;;9.20;;
47367;SDS011;34646;47.964;7.982;2024-01-11T18:28:39;21.37;;;8.63;;
47367;SDS011;34646;47.964;7.982;2024-01-11T18:34:40;17.33;;;9.87;;
47367;SDS011;34646;47.964;7.982;2024-01-11T18:40:41;14.90;;;8.87;;
47367;SDS011;34646;47.964;7.982;2024-01-11T18:46:42;21.77;;;8.70;;
47367;SDS011;34646;47.964;7.982;2024-01-11T18:52:42;15.03;;;8.77;;
47367;SDS011;34646;47.964;7.982;2024-01-11T18:58:43;19.30;;;8.37;;
47367;SDS011;34646;47.964;7.982;2024-01-11T19:04:44;13.10;;;7.93;;
47367;SDS011;34646;47.964;7.982;2024-01-11T19:16:46;14.65;;;8.38;;
47367;SDS011;34646;47.964;7.982;2024-01-11T19:22:47;17.93;;;8.10;;
47367;SDS011;34646;47.964;7.982;2024-01-11T19:28:47;14.93;;;8.00;;
47367;SDS011;34646;47.964;7.982;2024-01-11T19:34:48;22.40;;;12.37;;
47367;SDS011;34646;47.964;7.982;2024-01-11T19:40:49;20.13;;;10.97;;
47367;SDS011;34646;47.964;7.982;2024-01-11T19:46:53;22.07;;;10.20;;
47367;SDS011;34646;47.964;7.982;2024-01-11T19:52:54;19.67;;;10.75;;
47367;SDS011;34646;47.964;7.982;2024-01-11T19:58:55;23.40;;;10.00;;
47367;SDS011;34646;47.964;7.982;2024-01-11T20:04:55;17.57;;;9.47;;
47367;SDS011;34646;47.964;7.982;2024-01-11T20:10:56;18.10;;;10.37;;
47367;SDS011;34646;47.964;7.982;2024-01-11T20:16:58;18.10;;;9.90;;
47367;SDS011;34646;47.964;7.982;2024-01-11T20:22:58;19.87;;;9.87;;
47367;SDS011;34646;47.964;7.982;2024-01-11T20:28:59;17.43;;;10.27;;
47367;SDS011;34646;47.964;7.982;2024-01-11T20:35:00;18.90;;;9.93;;
47367;SDS011;34646;47.964;7.982;2024-01-11T20:41:01;17.00;;;10.07;;
47367;SDS011;34646;47.964;7.982;2024-01-11T20:47:02;20.00;;;10.07;;
47367;SDS011;34646;47.964;7.982;2024-01-11T20:53:03;21.80;;;10.50;;
47367;SDS011;34646;47.964;7.982;2024-01-11T20:59:05;19.42;;;9.65;;
47367;SDS011;34646;47.964;7.982;2024-01-11T21:05:06;17.93;;;9.53;;
47367;SDS011;34646;47.964;7.982;2024-01-11T21:11:07;16.63;;;9.40;;
47367;SDS011;34646;47.964;7.982;2024-01-11T21:17:08;20.33;;;10.10;;
47367;SDS011;34646;47.964;7.982;2024-01-11T21:23:09;14.33;;;9.00;;
47367;SDS011;34646;47.964;7.982;2024-01-11T21:29:10;19.20;;;9.70;;
47367;SDS011;34646;47.964;7.982;2024-01-11T21:35:10;29.17;;;12.87;;
47367;SDS011;34646;47.964;7.982;2024-01-11T21:41:11;76.13;;;24.67;;
47367;SDS011;34646;47.964;7.982;2024-01-11T21:47:12;55.77;;;19.43;;
47367;SDS011;34646;47.964;7.982;2024-01-11T21:53:13;51.47;;;22.00;;
47367;SDS011;34646;47.964;7.982;2024-01-11T21:59:13;60.07;;;21.40;;
47367;SDS011;34646;47.964;7.982;2024-01-11T22:05:14;49.90;;;19.63;;
47367;SDS011;34646;47.964;7.982;2024-01-11T22:11:15;48.93;;;20.17;;
47367;SDS011;34646;47.964;7.982;2024-01-11T22:17:19;50.00;;;20.23;;
47367;SDS011;34646;47.964;7.982;2024-01-11T22:23:20;49.23;;;19.87;;
47367;SDS011;34646;47.964;7.982;2024-01-11T22:29:20;49.27;;;19.00;;
47367;SDS011;34646;47.964;7.982;2024-01-11T22:35:21;39.77;;;17.20;;
47367;SDS011;34646;47.964;7.982;2024-01-11T22:41:22;41.50;;;16.77;;
47367;SDS011;34646;47.964;7.982;2024-01-11T22:47:23;38.25;;;17.80;;
47367;SDS011;34646;47.964;7.982;2024-01-11T22:53:24;39.30;;;16.75;;
47367;SDS011;34646;47.964;7.982;2024-01-11T22:59:25;41.10;;;16.83;;
47367;SDS011;34646;47.964;7.982;2024-01-11T23:05:26;33.73;;;15.73;;
47367;SDS011;34646;47.964;7.982;2024-01-11T23:11:28;43.83;;;16.15;;
47367;SDS011;34646;47.964;7.982;2024-01-11T23:17:28;37.13;;;15.70;;
47367;SDS011;34646;47.964;7.982;2024-01-11T23:23:29;40.77;;;15.60;;
47367;SDS011;34646;47.964;7.982;2024-01-11T23:29:30;35.13;;;15.37;;
47367;SDS011;34646;47.964;7.982;2024-01-11T23:35:31;33.13;;;14.93;;
47367;SDS011;34646;47.964;7.982;2024-01-11T23:41:31;34.67;;;15.13;;
47367;SDS011;34646;47.964;7.982;2024-01-11T23:47:32;31.07;;;14.23;;
47367;SDS011;34646;47.964;7.982;2024-01-11T23:53:33;31.87;;;14.33;;
47367;SDS011;34646;47.964;7.982;2024-01-11T23:59:34;31.83;;;13.93;;
